createdAt,value
2017-01-08T09:01:12.838Z,64.34
2017-01-08T09:02:24.155Z,64.15
2017-01-08T09:03:35.476Z,63.86
2017-01-08T09:04:46.381Z,62.04
2017-01-08T09:05:57.762Z,61.47
2017-01-08T09:07:09.084Z,61.94
2017-01-08T09:08:19.981Z,61.57
2017-01-08T09:09:31.305Z,60.13
2017-01-08T09:10:42.635Z,58.98
2017-01-08T09:11:53.580Z,58.79
2017-01-08T09:13:05.121Z,57.64
2017-01-08T09:14:16.446Z,58.12
2017-01-08T09:15:27.353Z,56.87
2017-01-08T09:16:37.825Z,56.68
2017-01-08T09:17:48.778Z,56.2
2017-01-08T09:19:00.120Z,56.49
2017-01-08T09:20:10.620Z,56.49
2017-01-08T09:21:21.529Z,56.01
2017-01-08T09:22:32.859Z,55.91
2017-01-08T09:23:44.244Z,55.75
2017-01-08T09:24:55.145Z,55.73
2017-01-08T09:26:06.107Z,55.53
2017-01-08T09:27:17.075Z,55.63
2017-01-08T09:28:27.977Z,55.82
2017-01-08T09:29:38.494Z,55.85
2017-01-08T09:30:49.395Z,55.94
2017-01-08T09:32:00.301Z,55.65
2017-01-08T09:33:11.210Z,56.04
2017-01-08T09:34:22.103Z,55.94
2017-01-08T09:35:33.044Z,55.75
2017-01-08T09:36:43.938Z,55.85
2017-01-08T09:37:54.839Z,55.56
2017-01-08T09:39:05.312Z,55.65
2017-01-08T09:40:16.641Z,56.04
2017-01-08T09:41:27.270Z,55.85
2017-01-08T09:42:38.176Z,55.85
2017-01-08T09:43:49.101Z,55.56
2017-01-08T09:45:00.018Z,55.56
2017-01-08T09:46:11.339Z,55.65
2017-01-08T09:47:22.717Z,55.36
2017-01-08T09:48:34.038Z,55.46
2017-01-08T09:49:44.943Z,55.46
2017-01-08T09:50:55.844Z,55.27
2017-01-08T09:52:07.178Z,55.56
2017-01-08T09:53:18.119Z,55.56
2017-01-08T09:54:29.012Z,55.27
2017-01-08T09:55:40.345Z,55.36
2017-01-08T09:56:51.671Z,55.46
2017-01-08T09:58:03.000Z,55.46
2017-01-08T09:59:13.953Z,55.36
2017-01-08T10:00:24.862Z,55.36
2017-01-08T10:01:36.187Z,55.65
2017-01-08T10:02:47.084Z,54.79
2017-01-08T10:03:58.406Z,55.08
2017-01-08T10:05:09.787Z,54.5
2017-01-08T10:06:21.116Z,53.07
2017-01-08T10:07:32.441Z,52.47
2017-01-08T10:08:43.334Z,51.77
2017-01-08T10:09:54.664Z,51.17
2017-01-08T10:11:06.052Z,50.79
2017-01-08T10:12:16.954Z,50.48
2017-01-08T10:13:27.855Z,50.16
2017-01-08T10:14:38.323Z,50.81
2017-01-08T10:15:49.641Z,50.62
2017-01-08T10:17:00.646Z,52.69
2017-01-08T10:18:11.607Z,53.96
2017-01-08T10:19:22.516Z,54.94
2017-01-08T10:20:33.841Z,55.42
2017-01-08T10:21:44.318Z,55.52
2017-01-08T10:22:55.256Z,56.02
2017-01-08T10:24:06.197Z,56.21
2017-01-08T10:25:17.102Z,56.31
2017-01-08T10:26:29.035Z,57.01
2017-01-08T10:27:39.524Z,56.53
2017-01-08T10:28:50.581Z,57.2
2017-01-08T10:30:02.147Z,57.1
2017-01-08T10:31:12.580Z,56.82
2017-01-08T10:32:24.014Z,57.7
2017-01-08T10:33:35.338Z,57.7
2017-01-08T10:34:46.432Z,57.7
2017-01-08T10:35:57.997Z,57.51
2017-01-08T10:37:08.714Z,57.8
2017-01-08T10:38:20.231Z,57.8
2017-01-08T10:39:33.880Z,57.7
2017-01-08T10:40:45.681Z,57.54
2017-01-08T10:41:56.991Z,57.73
2017-01-08T10:43:10.120Z,57.92
2017-01-08T10:44:22.405Z,58.02
2017-01-08T10:45:36.298Z,57.83
2017-01-08T10:46:49.508Z,58.4
2017-01-08T10:48:01.193Z,58.4
2017-01-08T10:49:12.226Z,58.22
2017-01-08T10:50:24.047Z,58.31
2017-01-08T10:51:35.640Z,58.22
2017-01-08T10:52:47.114Z,58.4
2017-01-08T10:53:58.087Z,58.34
2017-01-08T10:55:09.420Z,58.05
2017-01-08T10:56:20.749Z,57.38
2017-01-08T10:57:31.446Z,57.67
2017-01-08T10:58:42.392Z,57.95
2017-01-08T10:59:53.297Z,57.95
2017-01-08T11:01:04.194Z,57.76
2017-01-08T11:02:15.519Z,57.38
2017-01-08T11:03:26.665Z,57.86
2017-01-08T11:04:37.713Z,57.57
2017-01-08T11:05:48.207Z,57.76
2017-01-08T11:06:59.104Z,57.86
2017-01-08T11:08:09.573Z,57.76
2017-01-08T11:09:19.835Z,57.76
2017-01-08T11:10:30.348Z,57.7
2017-01-08T11:11:41.241Z,57.41
2017-01-08T11:12:51.738Z,57.6
2017-01-08T11:14:02.640Z,57.31
2017-01-08T11:15:13.965Z,57.03
2017-01-08T11:16:24.490Z,57.12
2017-01-08T11:17:35.383Z,57.03
2017-01-08T11:18:46.709Z,57.31
2017-01-08T11:19:58.042Z,57.06
2017-01-08T11:21:08.943Z,56.76
2017-01-08T11:22:19.896Z,56.86
2017-01-08T11:23:31.225Z,56.67
2017-01-08T11:24:42.555Z,56.48
2017-01-08T11:25:53.488Z,56.96
2017-01-08T11:27:04.385Z,56.76
2017-01-08T11:28:15.762Z,57.15
2017-01-08T11:29:26.664Z,56.98
2017-01-08T11:30:37.993Z,56.98
2017-01-08T11:31:49.326Z,57.08
2017-01-08T11:33:00.643Z,57.18
2017-01-08T11:34:11.597Z,57.08
2017-01-08T11:35:22.081Z,57.18
2017-01-08T11:36:33.410Z,56.89
2017-01-08T11:37:44.312Z,56.7
2017-01-08T11:38:55.206Z,56.53
2017-01-08T11:40:06.590Z,56.53
2017-01-08T11:41:17.924Z,56.63
2017-01-08T11:42:29.245Z,56.73
2017-01-08T11:43:40.150Z,56.53
2017-01-08T11:44:51.044Z,56.63
2017-01-08T11:46:01.993Z,56.82
2017-01-08T11:47:12.890Z,56.73
2017-01-08T11:48:23.791Z,56.15
2017-01-08T11:49:34.697Z,56.05
2017-01-08T11:50:46.690Z,55.99
2017-01-08T11:51:57.651Z,55.99
2017-01-08T11:53:08.552Z,55.79
2017-01-08T11:54:19.985Z,55.79
2017-01-08T11:55:30.256Z,56.37
2017-01-08T11:56:41.760Z,55.69
2017-01-08T11:57:53.581Z,55.6
2017-01-08T11:59:05.390Z,54.93
2017-01-08T12:00:16.888Z,55.12
2017-01-08T12:01:27.973Z,55.41
2017-01-08T12:02:38.618Z,54.96
2017-01-08T12:03:49.992Z,54.55
2017-01-08T12:05:01.493Z,54.64
2017-01-08T12:06:12.578Z,54.64
2017-01-08T12:07:23.363Z,54.38
2017-01-08T12:08:34.256Z,54.57
2017-01-08T12:09:44.781Z,54.47
2017-01-08T12:10:55.723Z,54.77
2017-01-08T12:12:07.052Z,54.57
2017-01-08T12:13:17.955Z,54.57
2017-01-08T12:14:28.531Z,54.47
2017-01-08T12:15:39.484Z,54.5
2017-01-08T12:16:50.385Z,54.41
2017-01-08T12:18:01.302Z,54.22
2017-01-08T12:19:12.636Z,54.09
2017-01-08T12:20:23.537Z,54.12
2017-01-08T12:21:35.970Z,54.41
2017-01-08T12:22:46.872Z,54.41
2017-01-08T12:23:57.777Z,54.31
2017-01-08T12:25:08.694Z,54.12
2017-01-08T12:26:19.603Z,53.83
2017-01-08T12:27:30.564Z,53.45
2017-01-08T12:28:41.897Z,53.45
2017-01-08T12:29:52.786Z,53.45
2017-01-08T12:31:03.272Z,53.54
2017-01-08T12:32:14.181Z,53.54
2017-01-08T12:33:25.138Z,53.25
2017-01-08T12:34:36.495Z,53.16
2017-01-08T12:35:47.825Z,53.25
2017-01-08T12:36:58.735Z,53.32
2017-01-08T12:38:10.079Z,52.97
2017-01-08T12:39:21.056Z,52.75
2017-01-08T12:40:32.378Z,53.23
2017-01-08T12:41:43.271Z,53.32
2017-01-08T12:42:54.184Z,53.35
2017-01-08T12:44:05.521Z,53.03
2017-01-08T12:45:16.474Z,52.26
2017-01-08T12:46:27.380Z,52.94
2017-01-08T12:47:38.717Z,52.65
2017-01-08T12:48:50.050Z,52.75
2017-01-08T12:50:00.947Z,52.46
2017-01-08T12:51:11.929Z,52.84
2017-01-08T12:52:22.822Z,52.55
2017-01-08T12:53:33.719Z,52.26
2017-01-08T12:54:44.644Z,52.46
2017-01-08T12:55:55.550Z,52.26
2017-01-08T12:57:06.931Z,52.26
2017-01-08T12:58:18.260Z,52.75
2017-01-08T12:59:29.161Z,52.75
2017-01-08T13:00:39.634Z,52.75
2017-01-08T13:01:50.960Z,52.26
2017-01-08T13:03:01.913Z,52.43
2017-01-08T13:04:13.242Z,52.53
2017-01-08T13:05:24.148Z,52.53
2017-01-08T13:06:35.476Z,52.34
2017-01-08T13:07:46.802Z,52.46
2017-01-08T13:08:57.331Z,52.62
2017-01-08T13:10:08.228Z,52.43
2017-01-08T13:11:19.167Z,52.43
2017-01-08T13:12:31.820Z,52.24
2017-01-08T13:13:43.140Z,52.05
2017-01-08T13:14:55.262Z,52.53
2017-01-08T13:16:06.162Z,52.72
2017-01-08T13:17:17.067Z,52.72
2017-01-08T13:18:27.548Z,53.39
2017-01-08T13:19:38.466Z,53.49
2017-01-08T13:20:49.855Z,53.32
2017-01-08T13:22:01.184Z,53.13
2017-01-08T13:23:12.077Z,53.13
2017-01-08T13:24:23.407Z,53.13
2017-01-08T13:25:34.316Z,53.13
2017-01-08T13:26:45.721Z,53.13
2017-01-08T13:27:57.042Z,53.32
2017-01-08T13:29:07.943Z,53.23
2017-01-08T13:30:18.844Z,53.23
2017-01-08T13:31:30.170Z,53.54
2017-01-08T13:32:40.815Z,53.74
2017-01-08T13:33:52.152Z,53.7
2017-01-08T13:35:02.897Z,53.83
2017-01-08T13:36:13.822Z,53.74
2017-01-08T13:37:24.936Z,53.74
2017-01-08T13:38:35.133Z,53.54
2017-01-08T13:39:46.286Z,53.35
2017-01-08T13:40:56.647Z,53.35
2017-01-08T13:42:07.548Z,53.54
2017-01-08T13:43:18.662Z,53.45
2017-01-08T13:44:29.319Z,53.54
2017-01-08T13:45:39.992Z,53.35
2017-01-08T13:46:50.681Z,53.64
2017-01-08T13:48:01.590Z,53.86
2017-01-08T13:49:12.488Z,53.76
2017-01-08T13:50:23.985Z,53.66
2017-01-08T13:51:34.554Z,53.66
2017-01-08T13:52:46.191Z,53.66
2017-01-08T13:53:57.312Z,53.76
2017-01-08T13:55:08.642Z,53.76
2017-01-08T13:56:19.666Z,53.76
2017-01-08T13:57:30.568Z,53.66
2017-01-08T13:58:41.918Z,53.38
2017-01-08T13:59:52.831Z,53.19
2017-01-08T14:01:04.183Z,53.5
2017-01-08T14:02:14.709Z,53.28
2017-01-08T14:03:25.598Z,53.38
2017-01-08T14:04:36.947Z,53.4
2017-01-08T14:05:47.874Z,53.19
2017-01-08T14:06:58.773Z,53.31
2017-01-08T14:08:09.842Z,53.11
2017-01-08T14:09:20.316Z,53.21
2017-01-08T14:10:31.653Z,53.11
2017-01-08T14:11:42.131Z,52.54
2017-01-08T14:12:53.043Z,52.92
2017-01-08T14:14:04.420Z,52.63
2017-01-08T14:15:15.322Z,52.06
2017-01-08T14:16:26.651Z,52.25
2017-01-08T14:17:37.560Z,51.86
2017-01-08T14:18:48.893Z,51.76
2017-01-08T14:20:00.270Z,51.76
2017-01-08T14:21:11.596Z,51.57
2017-01-08T14:22:22.073Z,51.09
2017-01-08T14:23:32.975Z,51.57
2017-01-08T14:24:44.307Z,51.19
2017-01-08T14:25:55.680Z,51.38
2017-01-08T14:27:07.018Z,50.9
2017-01-08T14:28:17.919Z,50.99
2017-01-08T14:29:28.828Z,51.19
2017-01-08T14:30:39.733Z,51.19
2017-01-08T14:31:51.118Z,51.19
2017-01-08T14:33:02.456Z,51.09
2017-01-08T14:34:13.360Z,50.97
2017-01-08T14:35:24.262Z,50.87
2017-01-08T14:36:35.167Z,50.99
2017-01-08T14:37:45.744Z,50.87
2017-01-08T14:38:56.645Z,50.78
2017-01-08T14:40:07.543Z,50.97
2017-01-08T14:41:18.880Z,50.87
2017-01-08T14:42:29.565Z,50.78
2017-01-08T14:43:40.518Z,50.87
2017-01-08T14:44:51.135Z,50.97
2017-01-08T14:46:02.576Z,50.78
2017-01-08T14:47:13.673Z,51.17
2017-01-08T14:48:23.499Z,50.97
2017-01-08T14:49:33.408Z,51.07
2017-01-08T14:50:45.129Z,51.26
2017-01-08T14:51:55.878Z,50.2
2017-01-08T14:53:05.695Z,50.78
2017-01-08T14:54:16.460Z,50.4
2017-01-08T14:55:26.361Z,50.59
2017-01-08T14:56:37.382Z,50.66
2017-01-08T14:57:48.703Z,50.68
2017-01-08T14:58:59.596Z,50.85
2017-01-08T15:00:10.521Z,50.78
2017-01-08T15:01:21.467Z,50.56
2017-01-08T15:02:32.792Z,50.46
2017-01-08T15:03:43.697Z,50.56
2017-01-08T15:04:54.594Z,50.56
2017-01-08T15:06:05.499Z,50.66
2017-01-08T15:07:16.888Z,50.37
2017-01-08T15:08:27.777Z,50.46
2017-01-08T15:09:39.099Z,50.46
2017-01-08T15:10:50.004Z,50.66
2017-01-08T15:12:01.337Z,50.37
2017-01-08T15:13:12.414Z,50.56
2017-01-08T15:14:23.307Z,50.66
2017-01-08T15:15:34.624Z,50.37
2017-01-08T15:16:45.533Z,50.66
2017-01-08T15:17:56.015Z,50.46
2017-01-08T15:19:06.968Z,50.46
2017-01-08T15:20:18.289Z,50.54
2017-01-08T15:21:29.290Z,50.44
2017-01-08T15:22:40.615Z,50.66
2017-01-08T15:23:51.372Z,50.66
2017-01-08T15:25:03.065Z,50.44
2017-01-08T15:26:13.386Z,50.85
2017-01-08T15:27:24.371Z,50.76
2017-01-08T15:28:34.623Z,50.95
2017-01-08T15:29:45.380Z,50.92
2017-01-08T15:30:57.090Z,50.76
2017-01-08T15:32:08.423Z,50.92
2017-01-08T15:33:18.894Z,51.04
2017-01-08T15:34:29.657Z,50.95
2017-01-08T15:35:40.994Z,51.33
2017-01-08T15:36:52.191Z,51.33
2017-01-08T15:38:03.524Z,51.23
2017-01-08T15:39:14.137Z,51.31
2017-01-08T15:40:25.510Z,51.81
2017-01-08T15:41:36.407Z,52.1
2017-01-08T15:42:47.414Z,51.81
2017-01-08T15:43:58.377Z,51.72
2017-01-08T15:45:09.713Z,51.62
2017-01-08T15:46:20.883Z,51.81
2017-01-08T15:47:31.784Z,51.53
2017-01-08T15:48:42.738Z,51.62
2017-01-08T15:49:54.067Z,51.72
2017-01-08T15:51:05.395Z,51.79
2017-01-08T15:52:16.717Z,52.26
2017-01-08T15:53:28.157Z,52.2
2017-01-08T15:54:39.018Z,52.1
2017-01-08T15:55:49.944Z,51.91
2017-01-08T15:57:00.836Z,52.1
2017-01-08T15:58:12.170Z,52
2017-01-08T15:59:23.491Z,52.17
2017-01-08T16:00:34.964Z,52.2
2017-01-08T16:01:46.293Z,52.29
2017-01-08T16:02:57.191Z,52.65
2017-01-08T16:04:08.664Z,52.26
2017-01-08T16:05:19.197Z,52.39
2017-01-08T16:06:30.142Z,52.65
2017-01-08T16:07:41.467Z,52.65
2017-01-08T16:08:52.432Z,52.46
2017-01-08T16:10:03.769Z,52.36
2017-01-08T16:11:14.675Z,52.36
2017-01-08T16:12:25.640Z,52.75
2017-01-08T16:13:36.973Z,52.55
2017-01-08T16:14:47.502Z,52.75
2017-01-08T16:15:58.096Z,52.55
2017-01-08T16:17:09.089Z,52.75
2017-01-08T16:18:20.466Z,52.65
2017-01-08T16:19:31.387Z,52.46
2017-01-08T16:20:42.144Z,52.55
2017-01-08T16:21:53.053Z,53.03
2017-01-08T16:23:03.952Z,53.03
2017-01-08T16:24:15.440Z,53.03
2017-01-08T16:25:26.345Z,53.32
2017-01-08T16:26:37.671Z,53.13
2017-01-08T16:27:48.568Z,53.42
2017-01-08T16:29:00.029Z,53.42
2017-01-08T16:30:11.714Z,53.13
2017-01-08T16:31:23.331Z,53.52
2017-01-08T16:32:34.321Z,53.32
2017-01-08T16:33:45.218Z,53.23
2017-01-08T16:34:56.375Z,53.23
2017-01-08T16:36:07.529Z,53.13
2017-01-08T16:37:18.425Z,53.13
2017-01-08T16:38:31.203Z,53.13
2017-01-08T16:39:43.220Z,53.13
2017-01-08T16:40:54.549Z,53.23
2017-01-08T16:42:06.047Z,53.13
2017-01-08T16:43:16.804Z,53.42
2017-01-08T16:44:28.465Z,53.13
2017-01-08T16:45:39.990Z,53.42
2017-01-08T16:46:50.995Z,52.75
2017-01-08T16:48:02.896Z,52.84
2017-01-08T16:49:13.638Z,53.13
2017-01-08T16:50:24.539Z,53.23
2017-01-08T16:51:35.034Z,53.52
2017-01-08T16:52:46.058Z,53.52
2017-01-08T16:53:57.091Z,53.42
2017-01-08T16:55:08.444Z,53.42
2017-01-08T16:56:18.853Z,52.94
2017-01-08T16:57:29.330Z,53.23
2017-01-08T16:58:40.136Z,53.23
2017-01-08T16:59:51.893Z,53.23
2017-01-08T17:01:02.786Z,53.23
2017-01-08T17:02:13.831Z,53.23
2017-01-08T17:03:24.937Z,53.32
2017-01-08T17:04:35.930Z,53.32
2017-01-08T17:05:47.307Z,53.32
2017-01-08T17:06:58.324Z,53.32
2017-01-08T17:08:09.270Z,53.42
2017-01-08T17:09:19.950Z,53.61
2017-01-08T17:10:30.852Z,53.7
2017-01-08T17:11:41.604Z,53.8
2017-01-08T17:12:52.078Z,53.42
2017-01-08T17:14:03.607Z,53.42
2017-01-08T17:15:14.088Z,53.52
2017-01-08T17:16:25.410Z,53.52
2017-01-08T17:17:36.219Z,53.7
2017-01-08T17:18:47.544Z,53.42
2017-01-08T17:19:58.989Z,53.42
2017-01-08T17:21:09.934Z,53.32
2017-01-08T17:22:20.871Z,53.52
2017-01-08T17:23:32.144Z,53.32
2017-01-08T17:24:42.633Z,53.32
2017-01-08T17:25:53.711Z,53.7
2017-01-08T17:27:05.060Z,53.9
2017-01-08T17:28:15.849Z,53.7
2017-01-08T17:29:28.250Z,53.9
2017-01-08T17:30:39.552Z,53.42
2017-01-08T17:31:51.461Z,53.42
2017-01-08T17:33:02.314Z,53.61
2017-01-08T17:34:13.395Z,53.42
2017-01-08T17:35:24.745Z,53.7
2017-01-08T17:36:36.482Z,53.7
2017-01-08T17:37:48.340Z,53.61
2017-01-08T17:39:00.085Z,53.8
2017-01-08T17:40:11.018Z,53.8
2017-01-08T17:41:22.511Z,53.23
2017-01-08T17:42:32.688Z,53.52
2017-01-08T17:43:43.841Z,54
2017-01-08T17:44:55.719Z,53.32
2017-01-08T17:46:08.176Z,53.52
2017-01-08T17:47:19.133Z,53.61
2017-01-08T17:48:30.042Z,53.7
2017-01-08T17:49:41.380Z,53.8
2017-01-08T17:50:52.285Z,53.61
2017-01-08T17:52:03.730Z,53.52
2017-01-08T17:53:14.740Z,53.7
2017-01-08T17:54:25.641Z,53.61
2017-01-08T17:55:37.010Z,53.61
2017-01-08T17:56:47.895Z,53.61
2017-01-08T17:58:00.080Z,53.61
2017-01-08T17:59:12.062Z,53.61
2017-01-08T18:00:22.959Z,53.61
2017-01-08T18:01:33.868Z,53.7
2017-01-08T18:02:44.769Z,53.7
2017-01-08T18:03:55.634Z,53.42
2017-01-08T18:05:07.032Z,53.9
2017-01-08T18:06:17.505Z,53.8
2017-01-08T18:07:28.406Z,53.7
2017-01-08T18:08:39.740Z,53.9
2017-01-08T18:09:51.073Z,53.8
2017-01-08T18:11:02.406Z,53.8
2017-01-08T18:12:13.780Z,53.8
2017-01-08T18:13:24.889Z,53.61
2017-01-08T18:14:35.790Z,53.9
2017-01-08T18:15:46.479Z,53.9
2017-01-08T18:16:58.449Z,54
2017-01-08T18:18:10.385Z,54
2017-01-08T18:19:21.939Z,54
2017-01-08T18:20:33.445Z,54.09
2017-01-08T18:21:44.614Z,53.97
2017-01-08T18:22:55.211Z,54.09
2017-01-08T18:24:05.507Z,54.19
2017-01-08T18:25:15.977Z,54.09
2017-01-08T18:26:27.010Z,54
2017-01-08T18:27:38.356Z,53.9
2017-01-08T18:28:49.313Z,54.09
2017-01-08T18:30:00.458Z,53.87
2017-01-08T18:31:12.751Z,54
2017-01-08T18:32:24.705Z,54.09
2017-01-08T18:33:36.358Z,54.09
2017-01-08T18:34:47.415Z,54.16
2017-01-08T18:35:59.106Z,54
2017-01-08T18:37:10.013Z,54.38
2017-01-08T18:38:21.339Z,54.28
2017-01-08T18:39:32.044Z,54.25
2017-01-08T18:40:43.509Z,54.09
2017-01-08T18:41:53.978Z,54.09
2017-01-08T18:43:04.924Z,54.19
2017-01-08T18:44:15.825Z,54
2017-01-08T18:45:27.146Z,54.09
2017-01-08T18:46:38.091Z,54.25
2017-01-08T18:47:49.440Z,54.38
2017-01-08T18:49:00.762Z,54.16
2017-01-08T18:50:11.663Z,54
2017-01-08T18:51:22.992Z,54.09
2017-01-08T18:52:34.662Z,54
2017-01-08T18:53:46.891Z,54
2017-01-08T18:54:57.796Z,54
2017-01-08T18:56:09.601Z,54
2017-01-08T18:57:21.403Z,54.38
2017-01-08T18:58:32.356Z,54.09
2017-01-08T18:59:43.953Z,54.19
2017-01-08T19:00:54.018Z,54
2017-01-08T19:02:04.860Z,54
2017-01-08T19:03:15.765Z,54.28
2017-01-08T19:04:26.454Z,54.09
2017-01-08T19:05:37.795Z,54
2017-01-08T19:06:49.121Z,54.09
2017-01-08T19:08:00.021Z,54.09
2017-01-08T19:09:10.887Z,54.28
2017-01-08T19:10:21.408Z,54.28
2017-01-08T19:11:32.309Z,54
2017-01-08T19:12:43.215Z,53.9
2017-01-08T19:13:54.109Z,53.61
2017-01-08T19:15:05.465Z,53.61
2017-01-08T19:16:16.546Z,53.61
2017-01-08T19:17:27.647Z,53.7
2017-01-08T19:18:38.556Z,53.42
2017-01-08T19:19:49.314Z,53.9
2017-01-08T19:20:59.839Z,53.9
2017-01-08T19:22:11.220Z,53.8
2017-01-08T19:23:22.253Z,53.7
2017-01-08T19:24:33.215Z,53.61
2017-01-08T19:25:44.491Z,53.7
2017-01-08T19:26:55.821Z,53.61
2017-01-08T19:28:07.218Z,53.68
2017-01-08T19:29:18.115Z,53.7
2017-01-08T19:30:29.013Z,53.9
2017-01-08T19:31:40.174Z,53.8
2017-01-08T19:32:52.179Z,53.8
2017-01-08T19:34:02.996Z,53.7
2017-01-08T19:35:14.625Z,53.9
2017-01-08T19:36:25.963Z,53.68
2017-01-08T19:37:36.860Z,53.52
2017-01-08T19:38:47.361Z,53.61
2017-01-08T19:39:58.314Z,53.61
2017-01-08T19:41:09.212Z,53.7
2017-01-08T19:42:20.429Z,53.61
2017-01-08T19:43:31.798Z,53.7
2017-01-08T19:44:42.983Z,53.7
2017-01-08T19:45:54.424Z,54
2017-01-08T19:47:05.162Z,53.49
2017-01-08T19:48:16.251Z,50.32
2017-01-08T19:49:26.916Z,48.57
2017-01-08T19:50:37.837Z,48.43
2017-01-08T19:51:49.778Z,47.51
2017-01-08T19:53:01.063Z,47.58
2017-01-08T19:54:13.788Z,47.73
2017-01-08T19:55:25.238Z,47.42
2017-01-08T19:56:36.347Z,47.23
2017-01-08T19:57:46.632Z,47.2
2017-01-08T19:58:57.958Z,46.89
2017-01-08T20:00:08.879Z,47.47
2017-01-08T20:01:19.900Z,48.11
2017-01-08T20:02:30.149Z,47.89
2017-01-08T20:03:40.774Z,48.83
2017-01-08T20:04:51.680Z,49.87
2017-01-08T20:06:02.685Z,50.26
2017-01-08T20:07:13.586Z,50.26
2017-01-08T20:08:24.063Z,51.28
2017-01-08T20:09:35.508Z,51.56
2017-01-08T20:10:46.849Z,52.04
2017-01-08T20:11:57.746Z,53
2017-01-08T20:13:09.084Z,52.9
2017-01-08T20:14:20.517Z,52.68
2017-01-08T20:15:31.690Z,53.35
2017-01-08T20:16:42.584Z,53.25
2017-01-08T20:17:53.481Z,53.64
2017-01-08T20:19:04.498Z,53.99
2017-01-08T20:20:15.603Z,54.27
2017-01-08T20:21:27.104Z,54.47
2017-01-08T20:22:37.573Z,54.75
2017-01-08T20:23:48.858Z,55.04
2017-01-08T20:25:00.183Z,54.47
2017-01-08T20:26:11.041Z,55.13
2017-01-08T20:27:21.570Z,55.61
2017-01-08T20:28:32.039Z,55.42
2017-01-08T20:29:43.396Z,55.42
2017-01-08T20:30:54.295Z,55.42
2017-01-08T20:32:05.627Z,55.68
2017-01-08T20:33:16.620Z,56.05
2017-01-08T20:34:27.325Z,56.24
2017-01-08T20:35:37.882Z,56.72
2017-01-08T20:36:49.363Z,56.92
2017-01-08T20:38:00.741Z,56.72
2017-01-08T20:39:11.490Z,56.92
2017-01-08T20:40:22.423Z,57.01
2017-01-08T20:41:32.872Z,57.48
2017-01-08T20:42:44.485Z,57.26
2017-01-08T20:43:55.394Z,57.26
2017-01-08T20:45:06.356Z,57.07
2017-01-08T20:46:17.249Z,58.03
2017-01-08T20:47:28.578Z,58.4
2017-01-08T20:48:39.899Z,58.69
2017-01-08T20:49:50.372Z,58.31
2017-01-08T20:51:01.745Z,58.59
2017-01-08T20:52:12.631Z,58.4
2017-01-08T20:53:24.160Z,58.5
2017-01-08T20:54:35.481Z,58.12
2017-01-08T20:55:46.382Z,58.95
2017-01-08T20:56:57.860Z,59.52
2017-01-08T20:58:08.752Z,59.33
2017-01-08T20:59:19.654Z,59.42
2017-01-08T21:00:30.546Z,59.05
2017-01-08T21:01:41.456Z,59.9
2017-01-08T21:02:52.401Z,60.47
2017-01-08T21:04:02.882Z,60.5
2017-01-08T21:05:14.198Z,60.41
2017-01-08T21:06:25.096Z,60.12
2017-01-08T21:07:36.417Z,59.86
2017-01-08T21:08:47.542Z,59.01
2017-01-08T21:09:57.679Z,58.81
2017-01-08T21:11:08.996Z,58.44
2017-01-08T21:12:20.325Z,58.44
2017-01-08T21:13:31.647Z,58.34
2017-01-08T21:14:43.032Z,58.65
2017-01-08T21:15:54.349Z,58.28
2017-01-08T21:17:05.710Z,57.99
2017-01-08T21:18:17.027Z,57.99
2017-01-08T21:19:28.372Z,57.99
2017-01-08T21:20:39.794Z,57.6
2017-01-08T21:21:51.115Z,57.04
2017-01-08T21:23:01.604Z,57.42
2017-01-08T21:24:12.493Z,57.51
2017-01-08T21:25:23.386Z,57.13
2017-01-08T21:26:34.751Z,58.08
2017-01-08T21:27:45.645Z,57.6
2017-01-08T21:28:56.538Z,57.7
2017-01-08T21:30:07.861Z,57.6
2017-01-08T21:31:18.760Z,57.42
2017-01-08T21:32:30.125Z,57.8
2017-01-08T21:33:41.019Z,58.08
2017-01-08T21:34:52.344Z,57.6
2017-01-08T21:36:03.661Z,57.23
2017-01-08T21:37:14.586Z,57.35
2017-01-08T21:38:25.527Z,57.6
2017-01-08T21:39:36.852Z,57.04
2017-01-08T21:40:48.174Z,57.42
2017-01-08T21:41:59.071Z,57.89
2017-01-08T21:43:10.396Z,57.26
2017-01-08T21:44:21.349Z,57.45
2017-01-08T21:45:32.247Z,57.35
2017-01-08T21:46:43.166Z,56.78
2017-01-08T21:47:54.057Z,57.42
2017-01-08T21:49:05.374Z,58.08
2017-01-08T21:50:16.319Z,58.18
2017-01-08T21:51:27.636Z,57.99
2017-01-08T21:52:38.957Z,57.99
2017-01-08T21:53:50.275Z,57.45
2017-01-08T21:55:01.176Z,57.54
2017-01-08T21:56:12.117Z,57.51
2017-01-08T21:57:23.439Z,57.13
2017-01-08T21:58:34.759Z,57.89
2017-01-08T21:59:45.657Z,57.42
2017-01-08T22:00:56.122Z,58.18
2017-01-08T22:02:07.075Z,58.97
2017-01-08T22:03:18.737Z,60.59
2017-01-08T22:04:29.857Z,61.76
2017-01-08T22:05:40.763Z,61.76
2017-01-08T22:06:52.084Z,62.37
2017-01-08T22:08:03.029Z,62.46
2017-01-08T22:09:13.930Z,62.3
2017-01-08T22:10:24.824Z,62.49
2017-01-08T22:11:35.856Z,62.21
2017-01-08T22:12:45.906Z,61.76
2017-01-08T22:13:56.427Z,61.66
2017-01-08T22:15:07.748Z,61.1
2017-01-08T22:16:18.214Z,60.93
2017-01-08T22:17:29.114Z,61.22
2017-01-08T22:18:40.444Z,60.55
2017-01-08T22:19:51.813Z,60.17
2017-01-08T22:21:02.706Z,60.49
2017-01-08T22:22:13.595Z,60.01
2017-01-08T22:23:24.489Z,60.01
2017-01-08T22:24:35.805Z,59.63
2017-01-08T22:25:46.756Z,58.86
2017-01-08T22:26:57.652Z,56.95
2017-01-08T22:28:08.973Z,55.87
2017-01-08T22:29:20.299Z,54.6
2017-01-08T22:30:30.767Z,54.48
2017-01-08T22:31:42.485Z,53.91
2017-01-08T22:32:54.962Z,53.91
2017-01-08T22:34:07.040Z,54.17
2017-01-08T22:35:18.785Z,54.26
2017-01-08T22:36:31.186Z,53.88
2017-01-08T22:37:43.843Z,55.41
2017-01-08T22:38:55.388Z,56.77
2017-01-08T22:40:06.381Z,57.63
2017-01-08T22:41:17.283Z,58.8
2017-01-08T22:42:28.632Z,58.7
2017-01-08T22:43:39.613Z,58.42
2017-01-08T22:44:50.934Z,59.41
2017-01-08T22:46:01.835Z,59.22
2017-01-08T22:47:13.158Z,59.15
2017-01-08T22:48:24.482Z,59.05
2017-01-08T22:49:35.435Z,58.58
2017-01-08T22:50:46.328Z,58.86
2017-01-08T22:51:57.225Z,58.58
2017-01-08T22:53:08.127Z,58.7
2017-01-08T22:54:19.484Z,58.51
2017-01-08T22:55:30.437Z,58.41
2017-01-08T22:56:41.766Z,58.41
2017-01-08T22:57:53.095Z,57.65
2017-01-08T22:59:03.988Z,57.75
2017-01-08T23:00:15.318Z,57.75
2017-01-08T23:01:26.399Z,57.84
2017-01-08T23:02:37.300Z,57.65
2017-01-08T23:03:48.621Z,57.58
2017-01-08T23:04:59.954Z,56.82
2017-01-08T23:06:10.848Z,57.2
2017-01-08T23:07:21.817Z,57.2
2017-01-08T23:08:33.138Z,57.1
2017-01-08T23:09:44.035Z,56.62
2017-01-08T23:10:55.361Z,56.82
2017-01-08T23:12:06.686Z,56.91
2017-01-08T23:13:18.059Z,56.15
2017-01-08T23:14:29.384Z,56.43
2017-01-08T23:15:40.709Z,56.43
2017-01-08T23:16:52.034Z,56.43
2017-01-08T23:18:02.931Z,56.72
2017-01-08T23:19:13.880Z,56.15
2017-01-08T23:20:25.198Z,55.96
2017-01-08T23:21:36.087Z,56.05
2017-01-08T23:22:47.417Z,55.57
2017-01-08T23:23:57.882Z,55.69
2017-01-08T23:25:08.479Z,56.08
2017-01-08T23:26:19.376Z,55.6
2017-01-08T23:27:30.277Z,56.17
2017-01-08T23:28:41.595Z,55.98
2017-01-08T23:29:52.060Z,55.31
2017-01-08T23:31:03.013Z,55.41
2017-01-08T23:32:13.910Z,55.51
2017-01-08T23:33:24.811Z,55.51
2017-01-08T23:34:36.140Z,55.51
2017-01-08T23:35:47.053Z,55.22
2017-01-08T23:36:58.435Z,55.41
2017-01-08T23:38:09.332Z,55.41
2017-01-08T23:39:20.233Z,55.51
2017-01-08T23:40:31.554Z,55.22
2017-01-08T23:41:42.447Z,55.41
2017-01-08T23:42:53.400Z,55.22
2017-01-08T23:44:04.730Z,55.41
2017-01-08T23:45:15.631Z,55.51
2017-01-08T23:46:26.960Z,55.41
2017-01-08T23:47:37.853Z,55.31
2017-01-08T23:48:49.234Z,55.31
2017-01-08T23:50:00.572Z,54.83
2017-01-08T23:51:11.905Z,54.74
2017-01-08T23:52:23.226Z,54.83
2017-01-08T23:53:34.559Z,54.77
2017-01-08T23:54:45.078Z,55.15
2017-01-08T23:55:55.978Z,55.15
2017-01-08T23:57:06.879Z,54.96
2017-01-08T23:58:17.780Z,54.96
2017-01-08T23:59:28.689Z,54.77
